.
WxDataArchive / Data Records for 2014-08-28
2014-08-27 August 2014 2014-08-29

Data Records for Thursday, 28 August 2014

Time	Temp	Chill	HIndex	Humid	Dewpt	 Wind 	HiWind	WindDir	Rain 	Barom
-----	----	-----	------	-----	-----	------	------	-------	-----	-----
00:00	67.3	67.3	67.3	78	60.2	0	0	---	0.00	30.060 
00:05	67.1	67.1	67.1	78	60.0	0	0	---	0.00	30.060 
00:10	66.9	66.9	66.9	78	59.8	0	0	---	0.00	30.060 
00:15	66.8	66.8	66.8	79	60.1	0	0	---	0.00	30.060 
00:20	66.6	66.6	66.6	79	59.9	0	0	---	0.00	30.060 
00:25	66.4	66.4	66.4	80	60.0	0	0	---	0.00	30.060 
00:30	66.3	66.3	66.3	80	59.9	0	0	---	0.00	30.061 
00:35	66.1	66.1	66.1	81	60.1	0	0	---	0.00	30.061 
00:40	66.0	66.0	66.0	81	60.0	0	0	---	0.00	30.061 
00:45	65.8	65.8	65.8	81	59.8	0	0	---	0.00	30.061 
00:50	65.6	65.6	65.6	82	59.9	0	0	---	0.00	30.061 
00:55	65.5	65.5	65.5	82	59.9	0	0	---	0.00	30.061 
01:00	65.3	65.3	65.3	82	59.7	0	0	---	0.00	30.064 
01:05	65.2	65.2	65.2	83	59.9	0	0	---	0.00	30.064 
01:10	65.0	65.0	65.0	83	59.7	0	0	---	0.00	30.064 
01:15	64.8	64.8	64.8	84	59.8	0	0	---	0.00	30.059 
01:20	64.7	64.7	64.7	84	59.7	0	0	---	0.00	30.059 
01:25	64.5	64.5	64.5	84	59.6	0	0	---	0.00	30.059 
01:30	64.3	64.3	64.3	84	59.4	0	0	---	0.00	30.062 
01:35	64.2	64.2	64.2	85	59.6	0	0	---	0.00	30.062 
01:40	64.0	64.0	64.0	85	59.4	0	0	---	0.00	30.062 
01:45	63.9	63.9	63.9	85	59.3	0	0	---	0.00	30.059 
01:50	63.7	63.7	63.7	86	59.4	0	0	---	0.00	30.059 
01:55	63.5	63.5	63.5	86	59.2	0	0	---	0.00	30.059 
02:00	63.4	63.4	63.4	87	59.5	0	0	---	0.00	30.061 
02:05	63.2	63.2	63.2	87	59.3	0	0	---	0.00	30.061 
02:10	63.2	63.2	63.2	87	59.3	0	0	---	0.00	30.061 
02:15	63.2	63.2	63.2	88	59.6	0	0	---	0.00	30.059 
02:20	63.1	63.1	63.1	88	59.5	0	0	---	0.00	30.059 
02:25	63.1	63.1	63.1	88	59.5	0	0	---	0.00	30.059 
02:30	62.9	62.9	62.9	88	59.3	0	0	---	0.00	30.059 
02:35	62.9	62.9	62.9	88	59.3	0	0	---	0.00	30.059 
02:40	62.9	62.9	62.9	88	59.3	0	0	---	0.00	30.059 
02:45	62.9	62.9	62.9	89	59.6	0	0	---	0.00	30.060 
02:50	62.9	62.9	62.9	89	59.6	0	0	---	0.00	30.060 
02:55	62.7	62.7	62.7	89	59.4	0	0	---	0.00	30.060 
03:00	62.6	62.6	62.6	89	59.3	0	0	---	0.00	30.058 
03:05	62.6	62.6	62.6	89	59.3	0	0	---	0.00	30.058 
03:10	62.6	62.6	62.6	89	59.3	0	0	---	0.00	30.058 
03:15	62.6	62.6	62.6	89	59.3	0	0	---	0.00	30.055 
03:20	62.6	62.6	62.6	89	59.3	0	0	---	0.00	30.055 
03:25	62.6	62.6	62.6	89	59.3	0	0	---	0.00	30.055 
03:30	62.4	62.4	62.4	89	59.1	0	0	---	0.00	30.057 
03:35	62.4	62.4	62.4	89	59.1	0	0	---	0.00	30.057 
03:40	62.4	62.4	62.4	89	59.1	0	0	---	0.00	30.057 
03:45	62.4	62.4	62.4	89	59.1	0	0	---	0.00	30.060 
03:50	62.3	62.3	62.3	89	59.0	0	0	---	0.00	30.060 
03:55	62.3	62.3	62.3	89	59.0	0	0	---	0.00	30.060 
04:00	62.3	62.3	62.3	90	59.3	0	0	---	0.00	30.062 
04:05	62.3	62.3	62.3	90	59.3	0	0	---	0.00	30.062 
04:10	62.1	62.1	62.1	90	59.1	0	0	---	0.00	30.062 
04:15	62.1	62.1	62.1	90	59.1	0	0	---	0.00	30.068 
04:20	62.1	62.1	62.1	90	59.1	0	0	---	0.00	30.068 
04:25	62.1	62.1	62.1	90	59.1	0	0	---	0.00	30.068 
04:30	62.1	62.1	62.1	90	59.1	0	0	---	0.00	30.071 
04:35	62.1	62.1	62.1	90	59.1	0	0	---	0.00	30.071 
04:40	62.0	62.0	62.0	90	59.0	0	0	---	0.00	30.071 
04:45	62.0	62.0	62.0	91	59.3	0	0	---	0.00	30.072 
04:50	62.0	62.0	62.0	91	59.3	0	0	---	0.00	30.072 
04:55	62.0	62.0	62.0	91	59.3	0	0	---	0.00	30.072 
05:00	61.8	61.8	61.8	91	59.1	0	0	---	0.00	30.069 
05:05	61.8	61.8	61.8	91	59.1	0	0	---	0.00	30.069 
05:10	61.6	61.6	61.6	91	58.9	0	0	---	0.00	30.069 
05:15	61.6	61.6	61.6	91	58.9	0	0	---	0.00	30.066 
05:20	61.6	61.6	61.6	91	58.9	0	1	315	0.00	30.066 
05:25	61.6	61.6	61.6	91	58.9	0	2	0	0.00	30.066 
05:30	61.6	61.6	61.6	91	58.9	0	1	0	0.00	30.069 
05:35	61.6	61.6	61.6	91	58.9	0	1	0	0.00	30.069 
05:40	61.6	61.6	61.6	91	58.9	0	0	---	0.00	30.069 
05:45	61.5	61.5	61.5	91	58.8	0	3	0	0.00	30.075 
05:50	61.5	61.5	61.5	91	58.8	0	0	---	0.00	30.075 
05:55	61.5	61.5	61.5	91	58.8	0	0	---	0.00	30.075 
06:00	61.3	61.3	61.3	91	58.6	0	1	0	0.00	30.078 
06:05	61.3	61.3	61.3	91	58.6	0	1	0	0.00	30.078 
06:10	61.3	61.3	61.3	92	59.0	0	0	---	0.00	30.078 
06:15	61.2	61.2	61.2	92	58.9	0	0	---	0.00	30.085 
06:20	61.2	61.2	61.2	92	58.9	0	0	---	0.00	30.085 
06:25	61.2	61.2	61.2	92	58.9	0	0	---	0.00	30.085 
06:30	61.0	61.0	61.0	92	58.7	0	1	0	0.00	30.082 
06:35	61.0	61.0	61.0	92	58.7	0	0	---	0.00	30.082 
06:40	60.9	60.9	60.9	92	58.6	0	0	---	0.00	30.082 
06:45	60.9	60.9	60.9	92	58.6	0	0	---	0.00	30.089 
06:50	60.7	60.7	60.7	92	58.4	0	0	---	0.00	30.089 
06:55	60.7	60.7	60.7	92	58.4	0	0	---	0.00	30.089 
07:00	60.5	60.5	60.5	92	58.2	0	0	---	0.00	30.094 
07:05	60.5	60.5	60.5	92	58.2	0	0	---	0.00	30.094 
07:10	60.5	60.5	60.5	92	58.2	0	0	---	0.00	30.094 
07:15	60.5	60.5	60.5	92	58.2	0	0	---	0.00	30.097 
07:20	60.5	60.5	60.5	92	58.2	0	0	---	0.00	30.097 
07:25	60.5	60.5	60.5	92	58.2	0	1	0	0.00	30.097 
07:30	60.5	60.5	60.5	93	58.5	0	2	0	0.00	30.097 
07:35	60.7	60.7	60.7	93	58.7	0	1	0	0.00	30.097 
07:40	60.9	60.9	60.9	93	58.9	0	1	0	0.00	30.097 
07:45	61.0	61.0	61.0	93	59.0	0	1	0	0.00	30.099 
07:50	61.2	61.2	61.2	93	59.2	0	1	0	0.00	30.099 
07:55	61.3	61.3	61.3	93	59.3	0	2	0	0.00	30.099 
08:00	61.5	61.5	61.5	92	59.2	0	2	0	0.00	30.099 
08:05	61.6	61.6	61.6	92	59.2	0	2	0	0.00	30.099 
08:10	62.0	62.0	62.0	92	59.6	1	4	45	0.00	30.099 
08:15	62.1	62.1	62.1	91	59.4	1	3	68	0.00	30.099 
08:20	62.4	62.4	62.4	91	59.7	0	3	90	0.00	30.099 
08:25	62.6	62.6	62.6	90	59.6	0	2	90	0.00	30.099 
08:30	62.6	62.6	62.6	90	59.6	1	3	90	0.00	30.099 
08:35	62.6	62.6	62.6	90	59.6	1	4	90	0.00	30.099 
08:40	62.6	62.6	62.6	90	59.6	1	4	90	0.00	30.099 
08:45	62.7	62.7	62.7	90	59.7	1	4	90	0.00	30.101 
08:50	62.9	62.9	62.9	89	59.6	0	4	90	0.00	30.101 
08:55	63.1	63.1	63.1	89	59.8	1	4	90	0.00	30.101 
09:00	63.1	63.1	63.1	88	59.5	1	3	90	0.00	30.100 
09:05	63.2	63.2	63.2	89	59.9	1	4	90	0.00	30.100 
09:10	63.4	63.4	63.4	88	59.8	1	4	90	0.00	30.100 
09:15	63.5	63.5	63.5	88	59.9	3	6	112	0.00	30.101 
09:20	63.7	63.7	63.7	88	60.1	2	7	90	0.00	30.101 
09:25	64.0	64.0	64.0	88	60.4	1	4	112	0.00	30.101 
09:30	64.5	64.5	64.5	87	60.5	1	4	112	0.00	30.102 
09:35	64.8	64.8	64.8	86	60.5	1	5	112	0.00	30.102 
09:40	64.8	64.8	64.8	85	60.2	1	4	112	0.00	30.102 
09:45	64.7	64.7	64.7	86	60.4	1	2	112	0.00	30.103 
09:50	64.5	64.5	64.5	86	60.2	1	5	112	0.00	30.103 
09:55	64.8	64.8	64.8	87	60.8	0	2	112	0.00	30.103 
10:00	65.2	65.2	65.2	87	61.2	0	1	112	0.00	30.104 
10:05	65.5	65.5	65.5	86	61.2	0	2	112	0.00	30.104 
10:10	66.0	66.0	66.0	86	61.7	1	4	112	0.00	30.104 
10:15	66.4	66.4	66.4	85	61.7	0	3	112	0.00	30.111 
10:20	66.8	66.8	66.8	84	61.8	1	3	112	0.00	30.111 
10:25	67.3	67.3	67.3	84	62.3	1	3	112	0.00	30.111 
10:30	67.8	67.8	67.8	82	62.1	1	4	112	0.00	30.106 
10:35	68.6	68.6	68.6	81	62.5	0	2	112	0.00	30.106 
10:40	69.4	69.4	69.4	80	63.0	1	4	112	0.00	30.106 
10:45	70.3	70.3	70.3	77	62.7	1	3	112	0.00	30.109 
10:50	70.4	70.4	70.4	77	62.8	1	3	112	0.00	30.109 
10:55	70.6	70.6	70.6	77	63.0	1	3	112	0.00	30.109 
11:00	71.1	71.1	71.1	78	63.9	0	1	112	0.00	30.104 
11:05	71.3	71.3	71.3	76	63.3	1	4	112	0.00	30.104 
11:10	70.8	70.8	70.8	77	63.2	1	5	112	0.00	30.104 
11:15	70.6	70.6	70.6	78	63.4	1	3	90	0.00	30.107 
11:20	70.8	70.8	70.8	77	63.2	1	4	90	0.00	30.107 
11:25	70.6	70.6	70.6	77	63.0	1	3	90	0.00	30.107 
11:30	70.9	70.9	70.9	77	63.3	1	3	90	0.00	30.102 
11:35	71.3	71.3	71.3	77	63.7	1	4	90	0.00	30.102 
11:40	72.1	72.1	72.1	74	63.3	1	4	90	0.00	30.102 
11:45	73.0	73.0	73.0	72	63.4	1	3	90	0.00	30.098 
11:50	73.7	73.7	73.7	71	63.7	0	2	90	0.00	30.098 
11:55	73.7	73.7	73.7	72	64.1	1	5	90	0.00	30.098 
12:00	74.2	74.2	74.2	70	63.8	0	3	90	0.00	30.098 
12:05	75.3	75.3	77.1	68	64.0	1	4	90	0.00	30.098 
12:10	75.8	75.8	77.7	65	63.2	1	4	90	0.00	30.098 
12:15	76.0	76.0	77.9	65	63.4	1	7	90	0.00	30.096 
12:20	76.0	76.0	77.9	65	63.4	2	7	68	0.00	30.096 
12:25	75.8	75.8	77.7	65	63.2	1	5	68	0.00	30.096 
12:30	75.4	75.4	77.3	66	63.2	0	2	68	0.00	30.093 
12:35	75.3	75.3	77.2	66	63.1	1	5	90	0.00	30.093 
12:40	76.0	76.0	78.0	62	62.0	1	3	90	0.00	30.093 
12:45	77.0	77.0	78.8	61	62.5	1	4	90	0.00	30.088 
12:50	77.4	77.4	79.1	60	62.4	1	7	90	0.00	30.088 
12:55	77.0	77.0	78.8	59	61.6	1	3	90	0.00	30.088 
13:00	76.8	76.8	78.6	61	62.3	1	5	68	0.00	30.082 
13:05	77.2	77.2	78.9	58	61.3	1	4	90	0.00	30.082 
13:10	77.6	77.6	79.2	58	61.6	1	5	90	0.00	30.082 
13:15	77.4	77.4	79.1	59	61.9	2	5	90	0.00	30.081 
13:20	76.8	76.8	78.6	61	62.3	1	4	90	0.00	30.081 
13:25	76.3	76.3	78.2	61	61.8	1	5	90	0.00	30.081 
13:30	76.0	76.0	78.0	61	61.6	1	3	90	0.00	30.081 
13:35	75.4	75.4	77.5	62	61.5	1	3	90	0.00	30.081 
13:40	75.4	75.4	77.4	65	62.8	0	2	90	0.00	30.081 
13:45	76.3	76.3	78.3	57	59.9	1	3	90	0.00	30.081 
13:50	77.6	77.6	79.2	58	61.6	1	4	90	0.00	30.081 
13:55	78.5	78.5	79.9	55	61.0	1	5	90	0.00	30.081 
14:00	79.2	79.2	80.4	54	61.1	1	4	90	0.00	30.077 
14:05	78.3	78.3	79.7	54	60.3	2	5	90	0.00	30.077 
14:10	77.0	77.0	78.7	56	60.1	2	4	90	0.00	30.077 
14:15	76.7	76.7	78.5	55	59.3	1	4	90	0.00	30.078 
14:20	76.7	76.7	78.5	57	60.3	1	3	90	0.00	30.078 
14:25	77.2	77.2	78.9	58	61.3	1	4	90	0.00	30.078 
14:30	77.4	77.4	79.1	59	61.9	2	4	90	0.00	30.072 
14:35	78.1	78.1	79.6	56	61.1	1	4	90	0.00	30.072 
14:40	78.3	78.3	79.7	54	60.3	1	4	90	0.00	30.072 
14:45	78.6	78.6	79.9	54	60.5	1	4	90	0.00	30.065 
14:50	79.0	79.0	80.3	55	61.4	0	2	90	0.00	30.065 
14:55	79.4	79.4	80.5	52	60.2	0	1	90	0.00	30.065 
15:00	79.9	79.9	80.9	52	60.7	0	2	90	0.00	30.062 
15:05	80.3	80.3	81.4	53	61.6	0	3	90	0.00	30.062 
15:10	80.5	80.5	81.6	53	61.8	0	2	90	0.00	30.062 
15:15	80.7	80.7	81.7	52	61.4	1	5	90	0.00	30.055 
15:20	79.9	79.9	80.8	51	60.1	2	5	90	0.00	30.055 
15:25	78.6	78.6	79.8	53	60.0	2	4	90	0.00	30.055 
15:30	77.7	77.7	79.2	54	59.7	1	3	90	0.00	30.052 
15:35	77.4	77.4	79.0	56	60.5	0	2	90	0.00	30.052 
15:40	77.2	77.2	78.9	55	59.8	1	3	90	0.00	30.052 
15:45	77.6	77.6	79.1	54	59.6	1	3	90	0.00	30.050 
15:50	78.3	78.3	79.6	53	59.7	0	2	90	0.00	30.050 
15:55	79.0	79.0	80.2	53	60.4	1	4	90	0.00	30.050 
16:00	79.0	79.0	80.0	51	59.3	2	3	90	0.00	30.049 
16:05	79.0	79.0	80.0	51	59.3	0	1	90	0.00	30.049 
16:10	79.0	79.0	80.0	50	58.7	0	2	90	0.00	30.049 
16:15	78.8	78.8	79.9	52	59.7	0	2	90	0.00	30.049 
16:20	78.8	78.8	80.0	53	60.2	0	2	90	0.00	30.049 
16:25	78.8	78.8	80.0	53	60.2	2	6	90	0.00	30.049 
16:30	78.6	78.6	79.8	53	60.0	1	4	90	0.00	30.044 
16:35	78.6	78.6	79.8	53	60.0	0	1	90	0.00	30.044 
16:40	78.5	78.5	79.8	53	59.9	1	4	135	0.00	30.044 
16:45	78.5	78.5	79.8	53	59.9	1	3	135	0.00	30.036 
16:50	78.6	78.6	79.7	51	58.9	0	1	135	0.00	30.036 
16:55	78.8	78.8	80.0	53	60.2	0	3	135	0.00	30.036 
17:00	78.6	78.6	79.8	53	60.0	1	3	112	0.00	30.037 
17:05	78.3	78.3	79.6	53	59.7	1	5	90	0.00	30.037 
17:10	77.7	77.7	79.2	54	59.7	0	3	135	0.00	30.037 
17:15	77.4	77.4	79.0	54	59.4	0	1	135	0.00	30.040 
17:20	77.4	77.4	79.0	54	59.4	0	2	158	0.00	30.040 
17:25	77.6	77.6	79.1	54	59.6	0	3	158	0.00	30.040 
17:30	77.9	77.9	79.3	54	59.9	0	2	158	0.00	30.038 
17:35	78.3	78.3	79.8	56	61.3	1	3	90	0.00	30.038 
17:40	78.5	78.5	79.9	55	61.0	1	3	90	0.00	30.038 
17:45	78.5	78.5	79.8	54	60.4	1	4	90	0.00	30.033 
17:50	78.8	78.8	80.0	53	60.2	0	1	90	0.00	30.033 
17:55	78.8	78.8	80.1	54	60.7	0	2	90	0.00	30.033 
18:00	78.8	78.8	80.1	54	60.7	0	1	90	0.00	30.033 
18:05	78.8	78.8	80.1	54	60.7	0	1	90	0.00	30.033 
18:10	78.6	78.6	79.9	54	60.5	0	2	90	0.00	30.033 
18:15	78.5	78.5	79.9	55	61.0	0	3	90	0.00	30.030 
18:20	78.1	78.1	79.6	56	61.1	0	2	90	0.00	30.030 
18:25	77.9	77.9	79.4	56	60.9	0	2	90	0.00	30.030 
18:30	77.6	77.6	79.2	57	61.1	1	4	90	0.00	30.032 
18:35	77.4	77.4	79.1	57	61.0	1	5	90	0.00	30.032 
18:40	77.2	77.2	78.9	56	60.3	0	3	68	0.00	30.032 
18:45	77.2	77.2	78.9	56	60.3	0	2	68	0.00	30.036 
18:50	77.2	77.2	78.9	56	60.3	0	4	90	0.00	30.036 
18:55	77.0	77.0	78.7	57	60.6	0	1	90	0.00	30.036 
19:00	76.8	76.8	78.6	58	60.9	0	1	90	0.00	30.035 
19:05	76.7	76.7	78.5	58	60.8	0	1	90	0.00	30.035 
19:10	76.5	76.5	78.4	58	60.6	0	1	90	0.00	30.035 
19:15	76.5	76.5	78.4	58	60.6	0	1	90	0.00	30.034 
19:20	76.5	76.5	78.4	59	61.1	0	1	90	0.00	30.034 
19:25	76.3	76.3	78.2	59	60.9	0	1	90	0.00	30.034 
19:30	76.1	76.1	78.1	60	61.2	0	1	90	0.00	30.035 
19:35	76.0	76.0	78.0	60	61.1	0	1	90	0.00	30.035 
19:40	75.8	75.8	77.8	61	61.4	0	1	90	0.00	30.035 
19:45	75.6	75.6	77.7	61	61.2	0	2	90	0.00	30.036 
19:50	75.4	75.4	77.5	62	61.5	0	0	---	0.00	30.036 
19:55	75.3	75.3	77.5	62	61.4	0	1	90	0.00	30.036 
20:00	75.1	75.1	77.3	62	61.2	0	1	90	0.00	30.042 
20:05	74.9	74.9	74.9	62	61.0	0	0	---	0.00	30.042 
20:10	74.6	74.6	74.6	63	61.2	0	0	---	0.00	30.042 
20:15	74.4	74.4	74.4	63	61.0	0	1	90	0.00	30.043 
20:20	74.0	74.0	74.0	64	61.0	0	0	---	0.00	30.043 
20:25	73.9	73.9	73.9	65	61.4	0	1	90	0.00	30.043 
20:30	73.5	73.5	73.5	65	61.0	0	1	90	0.00	30.041 
20:35	73.2	73.2	73.2	66	61.1	0	1	90	0.00	30.041 
20:40	73.0	73.0	73.0	67	61.4	0	0	---	0.00	30.041 
20:45	72.7	72.7	72.7	68	61.5	0	0	---	0.00	30.048 
20:50	72.3	72.3	72.3	69	61.5	0	0	---	0.00	30.048 
20:55	72.1	72.1	72.1	69	61.4	0	0	---	0.00	30.048 
21:00	71.8	71.8	71.8	70	61.5	0	0	---	0.00	30.057 
21:05	71.6	71.6	71.6	71	61.7	0	0	---	0.00	30.057 
21:10	71.3	71.3	71.3	72	61.8	0	0	---	0.00	30.057 
21:15	70.9	70.9	70.9	72	61.4	0	0	---	0.00	30.062 
21:20	70.6	70.6	70.6	73	61.5	0	0	---	0.00	30.062 
21:25	70.4	70.4	70.4	75	62.1	0	0	---	0.00	30.062 
21:30	70.3	70.3	70.3	76	62.4	0	0	---	0.00	30.066 
21:35	69.9	69.9	69.9	77	62.3	0	0	---	0.00	30.066 
21:40	69.8	69.8	69.8	78	62.6	0	1	90	0.00	30.066 
21:45	69.6	69.6	69.6	78	62.4	0	1	90	0.00	30.066 
21:50	69.8	69.8	69.8	78	62.6	0	1	90	0.00	30.066 
21:55	69.8	69.8	69.8	78	62.6	0	1	90	0.00	30.066 
22:00	69.8	69.8	69.8	78	62.6	0	1	90	0.00	30.066 
22:05	69.6	69.6	69.6	78	62.4	0	1	90	0.00	30.066 
22:10	69.4	69.4	69.4	77	61.9	0	2	90	0.00	30.066 
22:15	69.4	69.4	69.4	76	61.5	0	1	90	0.00	30.062 
22:20	69.3	69.3	69.3	75	61.0	0	1	90	0.00	30.062 
22:25	69.3	69.3	69.3	74	60.6	0	2	90	0.00	30.062 
22:30	69.1	69.1	69.1	73	60.1	1	3	90	0.00	30.064 
22:35	69.1	69.1	69.1	73	60.1	1	5	68	0.00	30.064 
22:40	68.9	68.9	68.9	73	59.9	0	2	68	0.00	30.064 
22:45	68.8	68.8	68.8	73	59.8	1	3	68	0.00	30.065 
22:50	68.4	68.4	68.4	73	59.4	1	3	68	0.00	30.065 
22:55	68.3	68.3	68.3	74	59.7	1	3	68	0.00	30.065 
23:00	67.9	67.9	67.9	74	59.3	2	6	68	0.00	30.067 
23:05	67.8	67.8	67.8	74	59.2	1	3	90	0.00	30.067 
23:10	67.6	67.6	67.6	75	59.4	1	3	90	0.00	30.067 
23:15	67.4	67.4	67.4	75	59.2	0	2	68	0.00	30.065 
23:20	67.3	67.3	67.3	75	59.1	1	4	68	0.00	30.065 
23:25	67.1	67.1	67.1	75	58.9	0	2	68	0.00	30.065 
23:30	66.9	66.9	66.9	76	59.1	0	2	68	0.00	30.063 
23:35	66.6	66.6	66.6	77	59.2	0	4	68	0.00	30.063 
23:40	66.4	66.4	66.4	77	59.0	1	2	68	0.00	30.063 
23:45	66.3	66.3	66.3	77	58.9	0	1	68	0.00	30.065 
23:50	66.1	66.1	66.1	78	59.0	0	2	68	0.00	30.065 
23:55	66.0	66.0	66.0	78	58.9	0	2	68	0.00	30.065 

CoCoRaHS
IN-AL-39
A2 Web Hosting
Creative Commons License
GoDaddy
search engine by freefind advanced

loaded 2018-11-16 23:21:29 • last modified 2010-11-18 10:43:29
Privacy PolicyDisclaimer
• wx.awcolley.com is powered by PmWiki v.2002016 •
• all content (unless otherwise noted) © 2018 A W Colley